Nevada, Missouri
Current Conditions -  °F | °C
As of 8:15 AM on Saturday 20 Dec 2014 (Local Time) from KPTS Reporting Station
Haze Haze  
Wind Chill: 36°   Ceiling: 2200
Heat Index: 36°   Visibility: 4mi
Dew Point: 36°   Wind: 3mph
Humidity: 100%   Direction: 280°W
Pressure: 30.24"   Gusts: NA
Location:  37.84°N, 94.36°W
Report Text: KPTS 201415Z AUTO 28003KT 4SM BR OVC022 02/02 A3024 RMK AO2 T00200021
Loading
Personal Weather Stations






























Interactive Weather Map New forecast layout! Learn more

10-Day Weather Forecast

Advertisements
Track Severe Weather on mobile